Jelm, Wyoming
Current Conditions -  °F | °C
As of 9:53 PM on Wednesday 22 Oct 2014 (Local Time) from KLAR Reporting Station
Clear Clear  
Wind Chill: 32°   Ceiling: Unl
Heat Index: 38°   Visibility: 10mi
Dew Point: 23°   Wind: 8mph
Humidity: 55%   Direction: 240°WSW
Pressure: 30.21"   Gusts: NA
Location:  41.06°N, 106.01°W
Report Text: KLAR 230353Z AUTO 24007KT 10SM CLR 03/M05 A3021 RMK AO2 SLP189 T00331050
Loading
Personal Weather Stations






























Interactive Weather Map
Tropical Storm Tracking
New forecast layout! Learn more

10-Day Weather Forecast

Advertisements
Track Severe Weather on mobile